Time;durP1;ratioP1;P1;durP2;ratioP2;P2;SDS_P1;SDS_P2;PMS_P1;PMS_P2;Temp;Humidity;BMP_temperature;BMP_pressure;BME280_temperature;BME280_humidity;BME280_pressure;Samples;Min_cycle;Max_cycle;Signal;HPM_P1;HPM_P2
2023/01/08 00:02:08;;;;;;;9.73;1.70;;;;;;;;;;5112158;28;20211;-84
2023/01/08 00:04:35;;;;;;;6.23;1.90;;;;;;;;;;5112076;28;20240;-84
2023/01/08 00:07:02;;;;;;;11.03;2.07;;;;;;;;;;5112293;28;20715;-83
2023/01/08 00:09:29;;;;;;;10.37;2.20;;;;;;;;;;5112612;28;20222;-83
2023/01/08 00:11:57;;;;;;;10.53;2.00;;;;;;;;;;5112248;28;20291;-84
2023/01/08 00:14:24;;;;;;;12.00;2.17;;;;;;;;;;5112092;28;20677;-83
2023/01/08 00:16:53;;;;;;;10.33;2.10;;;;;;;;;;5112645;28;20266;-83
2023/01/08 00:19:20;;;;;;;13.77;2.20;;;;;;;;;;5112206;28;20246;-83
2023/01/08 00:21:47;;;;;;;12.93;2.27;;;;;;;;;;5111879;28;20260;-84
2023/01/08 00:24:14;;;;;;;11.10;2.37;;;;;;;;;;5112046;28;20247;-84
2023/01/08 00:26:41;;;;;;;12.23;2.47;;;;;;;;;;5112128;28;20674;-84
2023/01/08 00:29:09;;;;;;;17.80;3.07;;;;;;;;;;5111973;28;20316;-84
2023/01/08 00:31:36;;;;;;;10.17;2.00;;;;;;;;;;5112069;28;20266;-83
2023/01/08 00:34:05;;;;;;;10.83;2.00;;;;;;;;;;5111727;28;20285;-84
2023/01/08 00:36:32;;;;;;;13.00;1.90;;;;;;;;;;5112369;28;20197;-84
2023/01/08 00:38:59;;;;;;;9.73;2.07;;;;;;;;;;5111675;28;20731;-83
2023/01/08 00:41:27;;;;;;;9.77;2.50;;;;;;;;;;5111277;28;20233;-83
2023/01/08 00:43:54;;;;;;;10.67;2.73;;;;;;;;;;5111970;28;20231;-84
2023/01/08 00:46:21;;;;;;;9.43;2.10;;;;;;;;;;5111661;28;20226;-83
2023/01/08 00:48:48;;;;;;;13.57;2.43;;;;;;;;;;5110626;28;20258;-83
2023/01/08 00:51:17;;;;;;;17.23;2.80;;;;;;;;;;5111083;28;20194;-84
2023/01/08 00:53:44;;;;;;;13.27;2.20;;;;;;;;;;5110834;28;20246;-83
2023/01/08 00:56:11;;;;;;;11.33;2.50;;;;;;;;;;5110765;28;20272;-84
2023/01/08 00:58:46;;;;;;;13.90;2.13;;;;;;;;;;5110473;28;20232;-83
2023/01/08 01:01:14;;;;;;;12.97;2.60;;;;;;;;;;5110905;28;20616;-83
2023/01/08 01:03:41;;;;;;;16.70;2.23;;;;;;;;;;5111192;28;20194;-83
2023/01/08 01:06:09;;;;;;;11.83;2.93;;;;;;;;;;5110359;28;20822;-83
2023/01/08 01:08:38;;;;;;;15.80;2.77;;;;;;;;;;5110828;28;20193;-84
2023/01/08 01:11:09;;;;;;;17.20;3.20;;;;;;;;;;5113229;28;20191;-83
2023/01/08 01:13:36;;;;;;;17.40;2.90;;;;;;;;;;5114964;28;20197;-83
2023/01/08 01:16:04;;;;;;;13.80;2.63;;;;;;;;;;5114057;28;20223;-83
2023/01/08 01:18:31;;;;;;;16.93;2.73;;;;;;;;;;5114384;28;20203;-83
2023/01/08 01:20:59;;;;;;;16.43;2.63;;;;;;;;;;5114628;28;20258;-83
2023/01/08 01:23:26;;;;;;;12.80;2.13;;;;;;;;;;5113811;28;20685;-83
2023/01/08 01:25:55;;;;;;;11.50;2.07;;;;;;;;;;5113450;28;20231;-85
2023/01/08 01:28:22;;;;;;;8.80;1.53;;;;;;;;;;5114155;28;20640;-84
2023/01/08 01:30:54;;;;;;;12.17;2.13;;;;;;;;;;5113881;28;20198;-84
2023/01/08 01:33:21;;;;;;;10.13;2.00;;;;;;;;;;5095573;28;20197;-84
2023/01/08 01:35:48;;;;;;;10.83;1.77;;;;;;;;;;5113845;28;20233;-83
2023/01/08 01:38:16;;;;;;;9.97;1.83;;;;;;;;;;5114273;28;20721;-84
2023/01/08 01:40:43;;;;;;;7.70;1.20;;;;;;;;;;5113777;28;20312;-84
2023/01/08 01:43:13;;;;;;;6.63;1.33;;;;;;;;;;5113806;28;20217;-84
2023/01/08 01:45:41;;;;;;;7.67;1.87;;;;;;;;;;5114131;28;20294;-85
2023/01/08 01:48:11;;;;;;;9.60;1.77;;;;;;;;;;5069060;28;1280045;-84
2023/01/08 01:50:40;;;;;;;7.93;1.70;;;;;;;;;;5115310;28;20638;-84
2023/01/08 01:53:10;;;;;;;8.00;1.47;;;;;;;;;;5114850;28;20201;-84
2023/01/08 01:55:38;;;;;;;7.87;1.37;;;;;;;;;;5114558;28;20232;-84
2023/01/08 01:58:09;;;;;;;5.30;1.13;;;;;;;;;;5114854;28;20237;-83
2023/01/08 02:00:38;;;;;;;7.83;1.30;;;;;;;;;;5114733;28;20682;-83
2023/01/08 02:03:05;;;;;;;8.50;1.57;;;;;;;;;;5114557;28;20288;-84
2023/01/08 02:05:36;;;;;;;6.53;1.67;;;;;;;;;;5115349;28;20230;-83
2023/01/08 02:08:07;;;;;;;6.23;1.67;;;;;;;;;;5114477;28;20231;-84
2023/01/08 02:10:39;;;;;;;6.63;1.27;;;;;;;;;;5114212;28;20239;-84
2023/01/08 02:13:09;;;;;;;11.07;1.40;;;;;;;;;;5114191;28;20284;-84
2023/01/08 02:15:40;;;;;;;8.97;1.53;;;;;;;;;;5114821;28;20237;-83
2023/01/08 02:18:09;;;;;;;10.50;1.80;;;;;;;;;;5114331;28;20229;-84
2023/01/08 02:20:38;;;;;;;6.83;1.40;;;;;;;;;;5114367;28;20602;-83
2023/01/08 02:23:21;;;;;;;4.73;1.40;;;;;;;;;;5114013;28;20247;-84
2023/01/08 02:26:05;;;;;;;12.33;2.07;;;;;;;;;;5114288;28;20233;-85
2023/01/08 02:28:33;;;;;;;6.50;1.53;;;;;;;;;;5114525;28;20208;-84
2023/01/08 02:31:00;;;;;;;12.33;1.90;;;;;;;;;;5113953;28;20236;-84
2023/01/08 02:33:28;;;;;;;8.47;1.40;;;;;;;;;;5114547;28;20221;-84
2023/01/08 02:36:11;;;;;;;7.47;1.60;;;;;;;;;;5114316;28;20243;-84
2023/01/08 02:38:40;;;;;;;8.67;1.50;;;;;;;;;;5113938;28;20221;-84
2023/01/08 02:41:11;;;;;;;8.87;1.43;;;;;;;;;;5114114;28;20255;-84
2023/01/08 02:43:42;;;;;;;10.90;1.77;;;;;;;;;;5115145;28;20241;-84
2023/01/08 02:46:12;;;;;;;9.33;1.63;;;;;;;;;;5114001;28;20221;-84
2023/01/08 02:48:40;;;;;;;6.13;1.43;;;;;;;;;;5113518;28;20346;-84
2023/01/08 02:51:09;;;;;;;10.27;1.73;;;;;;;;;;5113789;28;20233;-83
2023/01/08 02:53:38;;;;;;;7.87;1.67;;;;;;;;;;5113868;28;20225;-83
2023/01/08 02:56:08;;;;;;;8.33;1.80;;;;;;;;;;5114098;28;20190;-84
2023/01/08 02:58:38;;;;;;;7.80;1.80;;;;;;;;;;5113694;28;20217;-84
2023/01/08 03:01:07;;;;;;;9.27;1.63;;;;;;;;;;5113504;28;20320;-83
2023/01/08 03:03:35;;;;;;;10.43;1.53;;;;;;;;;;5113854;28;20227;-84
2023/01/08 03:06:04;;;;;;;12.03;1.67;;;;;;;;;;5113608;28;20228;-83
2023/01/08 03:08:34;;;;;;;10.30;1.53;;;;;;;;;;5113368;28;20198;-84
2023/01/08 03:11:04;;;;;;;9.07;1.43;;;;;;;;;;5113903;28;20252;-84
2023/01/08 03:13:33;;;;;;;11.43;1.50;;;;;;;;;;5113476;28;20273;-83
2023/01/08 03:16:04;;;;;;;10.40;1.40;;;;;;;;;;5105416;28;20260;-83
2023/01/08 03:18:34;;;;;;;9.17;1.70;;;;;;;;;;5095342;28;20240;-84
2023/01/08 03:21:02;;;;;;;11.43;1.80;;;;;;;;;;5092614;28;20712;-83
2023/01/08 03:23:29;;;;;;;10.57;1.70;;;;;;;;;;5092440;28;20585;-84
2023/01/08 03:25:58;;;;;;;10.53;1.37;;;;;;;;;;5074810;28;20237;-84
2023/01/08 03:28:29;;;;;;;9.67;1.50;;;;;;;;;;5108409;28;20197;-84
2023/01/08 03:30:57;;;;;;;10.90;1.20;;;;;;;;;;5113300;28;20194;-84
2023/01/08 03:33:28;;;;;;;13.87;1.93;;;;;;;;;;5111682;28;20192;-84
2023/01/08 03:35:58;;;;;;;10.50;1.30;;;;;;;;;;5112570;28;20277;-84
2023/01/08 03:38:27;;;;;;;5.00;1.20;;;;;;;;;;5113406;28;20197;-84
2023/01/08 03:40:57;;;;;;;6.07;1.10;;;;;;;;;;5112753;28;20218;-84
2023/01/08 03:43:24;;;;;;;10.90;1.67;;;;;;;;;;5113218;28;20688;-84
2023/01/08 03:45:53;;;;;;;9.20;1.63;;;;;;;;;;5112664;28;20225;-84
2023/01/08 03:48:21;;;;;;;9.30;1.23;;;;;;;;;;5112891;28;20328;-84
2023/01/08 03:50:49;;;;;;;10.27;1.43;;;;;;;;;;5094477;28;20217;-85
2023/01/08 03:53:17;;;;;;;9.13;1.30;;;;;;;;;;5113246;28;20221;-84
2023/01/08 03:55:44;;;;;;;9.80;1.33;;;;;;;;;;5112803;28;20277;-84
2023/01/08 03:58:12;;;;;;;8.73;1.77;;;;;;;;;;5112938;28;20225;-84
2023/01/08 04:00:39;;;;;;;9.07;1.20;;;;;;;;;;5112285;28;20251;-84
2023/01/08 04:03:07;;;;;;;7.93;1.23;;;;;;;;;;5112381;28;20589;-84
2023/01/08 04:05:34;;;;;;;7.37;1.10;;;;;;;;;;5112277;28;20627;-83
2023/01/08 04:08:03;;;;;;;13.77;1.30;;;;;;;;;;5112525;28;20229;-84
2023/01/08 04:10:30;;;;;;;5.53;1.03;;;;;;;;;;5112732;28;20214;-84
2023/01/08 04:12:57;;;;;;;11.10;1.43;;;;;;;;;;5112539;28;20628;-83
2023/01/08 04:15:25;;;;;;;8.87;1.37;;;;;;;;;;5112338;28;20242;-84
2023/01/08 04:17:52;;;;;;;7.33;0.90;;;;;;;;;;5112816;28;20194;-83
2023/01/08 04:20:20;;;;;;;5.57;0.80;;;;;;;;;;5111852;28;20228;-84
2023/01/08 04:22:47;;;;;;;6.63;0.90;;;;;;;;;;5112044;28;20256;-84
2023/01/08 04:25:16;;;;;;;9.50;1.50;;;;;;;;;;5112500;28;20201;-84
2023/01/08 04:27:43;;;;;;;11.27;1.33;;;;;;;;;;5112521;28;20198;-84
2023/01/08 04:30:11;;;;;;;5.10;1.10;;;;;;;;;;5112653;28;20223;-84
2023/01/08 04:32:38;;;;;;;7.57;1.00;;;;;;;;;;5093969;28;20229;-84
2023/01/08 04:35:06;;;;;;;8.13;1.10;;;;;;;;;;5111429;28;20243;-83
2023/01/08 04:37:33;;;;;;;11.07;0.93;;;;;;;;;;5112098;28;20238;-84
2023/01/08 04:40:01;;;;;;;7.47;1.17;;;;;;;;;;5111857;28;20248;-85
2023/01/08 04:42:29;;;;;;;8.87;1.13;;;;;;;;;;5112278;28;20256;-85
2023/01/08 04:44:57;;;;;;;8.57;1.10;;;;;;;;;;5112007;28;20193;-84
2023/01/08 04:47:24;;;;;;;8.67;1.17;;;;;;;;;;5111240;28;20279;-84
2023/01/08 04:49:52;;;;;;;8.67;1.20;;;;;;;;;;5111481;28;20198;-85
2023/01/08 04:52:19;;;;;;;12.50;1.30;;;;;;;;;;5111839;28;20273;-84
2023/01/08 04:54:46;;;;;;;6.70;1.07;;;;;;;;;;5111923;28;20241;-84
2023/01/08 04:57:13;;;;;;;8.20;1.27;;;;;;;;;;5111726;28;20221;-84
2023/01/08 04:59:42;;;;;;;7.00;1.00;;;;;;;;;;5111892;28;20225;-84
2023/01/08 05:02:09;;;;;;;8.67;1.57;;;;;;;;;;5111857;28;20304;-85
2023/01/08 05:04:37;;;;;;;5.87;1.07;;;;;;;;;;5111161;28;20229;-84
2023/01/08 05:07:04;;;;;;;10.33;1.10;;;;;;;;;;5111867;28;20627;-84
2023/01/08 05:09:32;;;;;;;12.23;1.20;;;;;;;;;;5112013;28;20221;-85
2023/01/08 05:11:59;;;;;;;8.00;1.13;;;;;;;;;;5111613;28;20752;-84
2023/01/08 05:14:27;;;;;;;6.23;0.80;;;;;;;;;;5111859;28;20249;-85
2023/01/08 05:16:55;;;;;;;6.80;1.20;;;;;;;;;;5111221;28;20306;-84
2023/01/08 05:19:22;;;;;;;7.43;1.07;;;;;;;;;;5111835;28;20229;-84
2023/01/08 05:21:50;;;;;;;4.50;1.03;;;;;;;;;;5111964;28;20252;-84
2023/01/08 05:24:17;;;;;;;8.27;0.83;;;;;;;;;;5111375;28;20226;-84
2023/01/08 05:26:44;;;;;;;7.50;1.00;;;;;;;;;;5112107;28;20233;-85
2023/01/08 05:29:11;;;;;;;8.40;1.43;;;;;;;;;;5111148;28;20198;-84
2023/01/08 05:31:38;;;;;;;8.40;1.20;;;;;;;;;;5110981;28;20693;-85
2023/01/08 05:34:07;;;;;;;7.50;0.93;;;;;;;;;;5111478;28;20249;-84
2023/01/08 05:36:35;;;;;;;10.53;1.57;;;;;;;;;;5111801;28;20221;-84
2023/01/08 05:39:02;;;;;;;9.13;0.87;;;;;;;;;;5111453;28;20661;-84
2023/01/08 05:41:29;;;;;;;8.00;0.93;;;;;;;;;;5111299;28;20197;-84
2023/01/08 05:43:56;;;;;;;6.13;1.07;;;;;;;;;;5110981;28;20202;-84
2023/01/08 05:46:24;;;;;;;8.33;1.17;;;;;;;;;;5111172;28;20218;-84
2023/01/08 05:48:51;;;;;;;6.40;0.70;;;;;;;;;;5111065;28;20322;-83
2023/01/08 05:51:20;;;;;;;8.97;1.17;;;;;;;;;;5111276;28;20217;-84
2023/01/08 05:53:47;;;;;;;7.90;0.80;;;;;;;;;;5111084;28;20267;-85
2023/01/08 05:56:14;;;;;;;7.43;1.00;;;;;;;;;;5113604;28;20224;-84
2023/01/08 05:58:42;;;;;;;10.03;1.30;;;;;;;;;;5114990;28;20239;-84
2023/01/08 06:01:10;;;;;;;7.10;1.03;;;;;;;;;;5114169;28;20696;-84
2023/01/08 06:03:38;;;;;;;8.13;1.23;;;;;;;;;;5114900;28;20253;-84
2023/01/08 06:06:06;;;;;;;8.60;1.20;;;;;;;;;;5115108;28;20214;-84
2023/01/08 06:08:35;;;;;;;10.63;1.33;;;;;;;;;;5115208;28;20288;-83
2023/01/08 06:11:04;;;;;;;7.53;1.20;;;;;;;;;;5114927;28;20225;-84
2023/01/08 06:13:32;;;;;;;9.07;1.27;;;;;;;;;;5114859;28;20564;-84
2023/01/08 06:15:59;;;;;;;6.80;1.03;;;;;;;;;;5114297;28;20259;-83
2023/01/08 06:18:27;;;;;;;8.03;1.90;;;;;;;;;;5113829;28;20198;-84
2023/01/08 06:20:54;;;;;;;7.80;1.10;;;;;;;;;;5114590;28;20229;-84
2023/01/08 06:23:21;;;;;;;12.80;1.37;;;;;;;;;;5114874;28;20261;-83
2023/01/08 06:25:53;;;;;;;12.90;1.50;;;;;;;;;;5114792;28;20198;-84
2023/01/08 06:28:21;;;;;;;6.77;1.17;;;;;;;;;;5114335;28;20208;-83
2023/01/08 06:30:48;;;;;;;5.23;1.60;;;;;;;;;;5114155;28;20322;-85
2023/01/08 06:33:15;;;;;;;12.20;1.50;;;;;;;;;;5113945;28;20212;-84
2023/01/08 06:35:42;;;;;;;9.70;1.40;;;;;;;;;;5114652;28;20647;-84
2023/01/08 06:38:10;;;;;;;12.07;1.70;;;;;;;;;;5114253;28;20289;-84
2023/01/08 06:40:37;;;;;;;8.27;1.40;;;;;;;;;;5096190;28;20625;-85
2023/01/08 06:43:06;;;;;;;8.03;1.70;;;;;;;;;;5114454;28;20261;-85
2023/01/08 06:45:33;;;;;;;11.40;1.70;;;;;;;;;;5113444;28;20216;-85
2023/01/08 06:48:01;;;;;;;15.37;1.80;;;;;;;;;;5113807;28;21112;-84
2023/01/08 06:50:29;;;;;;;10.90;1.53;;;;;;;;;;5114013;28;20200;-85
2023/01/08 06:52:56;;;;;;;7.43;1.23;;;;;;;;;;5114141;28;20255;-84
2023/01/08 06:55:24;;;;;;;11.07;1.60;;;;;;;;;;5113749;28;20197;-84
2023/01/08 06:57:54;;;;;;;7.40;1.80;;;;;;;;;;5113930;28;20247;-84
2023/01/08 07:00:24;;;;;;;8.70;1.60;;;;;;;;;;5113472;28;20224;-83
2023/01/08 07:02:52;;;;;;;13.17;1.77;;;;;;;;;;5113604;28;20230;-85
2023/01/08 07:05:19;;;;;;;10.13;1.70;;;;;;;;;;5113903;28;20232;-84
2023/01/08 07:07:47;;;;;;;13.47;1.97;;;;;;;;;;5112534;28;20217;-83
2023/01/08 07:10:14;;;;;;;13.67;1.83;;;;;;;;;;5113700;28;20233;-84
2023/01/08 07:12:41;;;;;;;8.17;1.73;;;;;;;;;;5113458;28;20693;-83
2023/01/08 07:15:09;;;;;;;8.43;1.60;;;;;;;;;;5113231;28;20217;-83
2023/01/08 07:17:38;;;;;;;8.83;1.90;;;;;;;;;;5114037;28;20236;-84
2023/01/08 07:20:06;;;;;;;11.13;1.40;;;;;;;;;;5113629;28;20620;-84
2023/01/08 07:22:33;;;;;;;14.37;1.80;;;;;;;;;;5113308;28;20316;-84
2023/01/08 07:25:00;;;;;;;10.80;1.40;;;;;;;;;;5113524;28;20225;-84
2023/01/08 07:27:28;;;;;;;13.57;1.80;;;;;;;;;;5112738;28;20255;-84
2023/01/08 07:29:55;;;;;;;13.83;1.87;;;;;;;;;;5095396;28;20276;-84
2023/01/08 07:32:23;;;;;;;13.37;1.90;;;;;;;;;;5113199;28;20197;-84
2023/01/08 07:34:53;;;;;;;6.30;1.50;;;;;;;;;;5110200;28;20686;-85
2023/01/08 07:37:20;;;;;;;10.20;1.73;;;;;;;;;;5111795;28;20263;-84
2023/01/08 07:39:47;;;;;;;12.00;1.80;;;;;;;;;;5112577;28;20190;-84
2023/01/08 07:42:15;;;;;;;7.60;1.60;;;;;;;;;;5102782;28;20226;-84
2023/01/08 07:44:42;;;;;;;11.27;2.00;;;;;;;;;;5106103;28;20240;-84
2023/01/08 07:47:09;;;;;;;13.67;1.83;;;;;;;;;;5112605;28;20254;-84
2023/01/08 07:49:37;;;;;;;9.70;1.40;;;;;;;;;;5109049;28;20217;-84
2023/01/08 07:52:06;;;;;;;10.13;1.70;;;;;;;;;;5112298;28;20220;-83
2023/01/08 07:54:33;;;;;;;16.13;1.93;;;;;;;;;;5100403;28;20226;-83
2023/01/08 07:57:01;;;;;;;10.77;1.70;;;;;;;;;;5100791;28;20224;-84
2023/01/08 07:59:29;;;;;;;13.43;1.80;;;;;;;;;;5103973;28;20281;-83
2023/01/08 08:01:56;;;;;;;13.97;1.90;;;;;;;;;;5103948;28;20614;-83
2023/01/08 08:04:24;;;;;;;13.57;2.17;;;;;;;;;;5103971;28;20305;-83
2023/01/08 08:06:51;;;;;;;15.57;2.10;;;;;;;;;;5106857;28;20284;-84
2023/01/08 08:09:19;;;;;;;10.83;1.60;;;;;;;;;;5111711;28;20194;-84
2023/01/08 08:11:47;;;;;;;12.30;1.83;;;;;;;;;;5092601;28;20200;-83
2023/01/08 08:14:14;;;;;;;14.43;2.37;;;;;;;;;;5100361;28;20221;-84
2023/01/08 08:16:42;;;;;;;11.77;2.07;;;;;;;;;;5102299;28;20234;-84
2023/01/08 08:19:09;;;;;;;12.33;2.00;;;;;;;;;;5111681;28;20225;-84
2023/01/08 08:21:36;;;;;;;16.20;2.33;;;;;;;;;;5101361;28;20194;-84
2023/01/08 08:24:03;;;;;;;13.17;2.17;;;;;;;;;;5100115;28;20312;-83
2023/01/08 08:26:32;;;;;;;11.57;2.20;;;;;;;;;;5108679;28;20214;-83
2023/01/08 08:28:59;;;;;;;11.53;2.17;;;;;;;;;;5111693;28;20655;-84
2023/01/08 08:31:27;;;;;;;10.23;2.43;;;;;;;;;;5100151;28;20222;-83
2023/01/08 08:33:54;;;;;;;12.03;2.27;;;;;;;;;;5101422;28;20214;-83
2023/01/08 08:36:21;;;;;;;11.90;1.90;;;;;;;;;;5100718;28;20289;-83
2023/01/08 08:38:48;;;;;;;10.73;1.77;;;;;;;;;;5102022;28;20205;-85
2023/01/08 08:41:17;;;;;;;17.63;2.60;;;;;;;;;;5100619;28;20218;-83
2023/01/08 08:43:48;;;;;;;14.97;2.07;;;;;;;;;;5093124;28;20238;-83
2023/01/08 08:46:16;;;;;;;12.23;2.03;;;;;;;;;;5116971;27;20627;-84
2023/01/08 08:48:45;;;;;;;12.50;2.10;;;;;;;;;;5099266;28;20653;-84
2023/01/08 08:51:12;;;;;;;10.23;2.00;;;;;;;;;;5108977;28;20189;-83
2023/01/08 08:53:39;;;;;;;10.37;1.90;;;;;;;;;;5111156;28;20223;-80
2023/01/08 08:56:07;;;;;;;17.20;2.30;;;;;;;;;;5111096;28;20214;-81
2023/01/08 08:58:34;;;;;;;12.67;2.10;;;;;;;;;;5111162;28;20225;-80
2023/01/08 09:01:03;;;;;;;14.77;2.40;;;;;;;;;;5100203;28;20234;-81
2023/01/08 09:03:30;;;;;;;8.07;1.77;;;;;;;;;;5110840;28;20713;-81
2023/01/08 09:05:57;;;;;;;17.90;2.30;;;;;;;;;;5109356;28;20221;-81
2023/01/08 09:08:25;;;;;;;13.33;2.43;;;;;;;;;;5109992;28;21005;-81
2023/01/08 09:10:52;;;;;;;11.13;1.97;;;;;;;;;;5102634;28;20251;-80
2023/01/08 09:13:19;;;;;;;9.37;1.90;;;;;;;;;;5111589;28;20229;-81
2023/01/08 09:15:46;;;;;;;12.83;2.03;;;;;;;;;;5111260;28;20268;-81
2023/01/08 09:18:15;;;;;;;11.87;2.00;;;;;;;;;;5111626;28;20197;-81
2023/01/08 09:20:42;;;;;;;9.70;2.10;;;;;;;;;;5111362;28;20358;-81
2023/01/08 09:23:10;;;;;;;15.10;1.93;;;;;;;;;;5111204;28;20252;-82
2023/01/08 09:25:37;;;;;;;15.63;2.53;;;;;;;;;;5111411;28;20244;-81
2023/01/08 09:28:05;;;;;;;5.47;1.53;;;;;;;;;;5095624;28;20206;-84
2023/01/08 09:30:33;;;;;;;11.03;2.37;;;;;;;;;;5091866;28;20229;-84
2023/01/08 09:33:01;;;;;;;10.20;2.10;;;;;;;;;;5095154;28;20278;-84
2023/01/08 09:35:30;;;;;;;10.27;1.70;;;;;;;;;;5094513;28;20233;-84
2023/01/08 09:37:57;;;;;;;8.40;1.93;;;;;;;;;;5096837;28;20767;-82
2023/01/08 09:40:26;;;;;;;11.57;1.90;;;;;;;;;;5115752;28;20371;-83
2023/01/08 09:42:55;;;;;;;13.27;2.23;;;;;;;;;;5115260;28;20248;-83
2023/01/08 09:45:25;;;;;;;10.07;1.60;;;;;;;;;;5115150;28;20280;-83
2023/01/08 09:47:52;;;;;;;5.83;1.50;;;;;;;;;;5115043;28;20442;-84
2023/01/08 09:50:21;;;;;;;7.07;1.70;;;;;;;;;;5115041;28;20198;-80
2023/01/08 09:52:49;;;;;;;9.53;1.53;;;;;;;;;;5115116;28;20289;-81
2023/01/08 09:55:17;;;;;;;9.97;1.70;;;;;;;;;;5114612;28;20229;-81
2023/01/08 09:57:44;;;;;;;7.00;1.80;;;;;;;;;;5114565;28;20221;-82
2023/01/08 10:00:14;;;;;;;8.10;1.73;;;;;;;;;;5113925;28;20243;-82
2023/01/08 10:02:41;;;;;;;11.77;2.30;;;;;;;;;;5104729;28;20939;-81
2023/01/08 10:05:13;;;;;;;15.20;2.10;;;;;;;;;;5093575;28;20250;-80
2023/01/08 10:07:41;;;;;;;8.27;2.03;;;;;;;;;;5110043;28;20232;-80
2023/01/08 10:10:16;;;;;;;6.70;1.73;;;;;;;;;;5111440;28;20658;-81
2023/01/08 10:12:43;;;;;;;9.60;2.17;;;;;;;;;;5113404;28;20193;-79
2023/01/08 10:15:13;;;;;;;11.73;1.90;;;;;;;;;;5108566;28;20733;-80
2023/01/08 10:17:41;;;;;;;17.27;2.10;;;;;;;;;;5107999;27;20244;-80
2023/01/08 10:20:11;;;;;;;8.47;1.70;;;;;;;;;;5118991;27;20652;-80
2023/01/08 10:22:39;;;;;;;12.60;2.57;;;;;;;;;;5114685;27;20767;-80
2023/01/08 10:25:08;;;;;;;11.83;2.17;;;;;;;;;;5110786;27;20313;-80
2023/01/08 10:27:46;;;;;;;10.20;2.10;;;;;;;;;;5112630;27;20735;-80
2023/01/08 10:30:16;;;;;;;10.73;1.70;;;;;;;;;;5111641;28;20285;-81
2023/01/08 10:32:47;;;;;;;13.97;2.07;;;;;;;;;;5110970;28;20229;-81
2023/01/08 10:35:17;;;;;;;13.33;2.27;;;;;;;;;;5107534;28;20194;-79
2023/01/08 10:37:45;;;;;;;11.10;1.93;;;;;;;;;;5105190;28;20273;-80
2023/01/08 10:40:20;;;;;;;11.53;1.90;;;;;;;;;;5106727;28;20679;-81
2023/01/08 10:42:50;;;;;;;10.77;1.90;;;;;;;;;;5104363;28;20695;-80
2023/01/08 10:45:19;;;;;;;10.00;1.90;;;;;;;;;;5106258;27;20249;-80
2023/01/08 10:47:48;;;;;;;9.93;2.20;;;;;;;;;;5105800;28;20229;-81
2023/01/08 10:50:19;;;;;;;10.43;2.00;;;;;;;;;;5108276;28;20225;-79
2023/01/08 10:52:52;;;;;;;10.53;2.40;;;;;;;;;;5111495;28;20214;-81
2023/01/08 10:55:22;;;;;;;11.57;1.90;;;;;;;;;;5108853;28;20580;-81
2023/01/08 10:57:55;;;;;;;7.03;1.70;;;;;;;;;;5110164;28;20210;-81
2023/01/08 11:00:23;;;;;;;11.13;2.23;;;;;;;;;;5110099;28;20289;-81
2023/01/08 11:02:50;;;;;;;9.17;1.90;;;;;;;;;;5107631;27;20274;-80
2023/01/08 11:05:18;;;;;;;11.37;2.30;;;;;;;;;;5105742;28;20317;-81
2023/01/08 11:07:48;;;;;;;6.43;1.63;;;;;;;;;;5112757;28;20217;-82
2023/01/08 11:10:23;;;;;;;11.57;1.80;;;;;;;;;;5106150;28;20228;-81
2023/01/08 11:12:56;;;;;;;8.47;1.40;;;;;;;;;;5112651;28;20246;-81
2023/01/08 11:15:31;;;;;;;7.03;1.60;;;;;;;;;;5109143;28;20201;-82
2023/01/08 11:18:16;;;;;;;9.33;1.77;;;;;;;;;;5109382;28;20746;-81
2023/01/08 11:20:44;;;;;;;8.63;1.70;;;;;;;;;;5105307;28;20190;-81
2023/01/08 11:23:16;;;;;;;9.17;1.60;;;;;;;;;;5102714;28;20268;-80
2023/01/08 11:25:45;;;;;;;7.57;1.87;;;;;;;;;;5105860;28;20198;-81
2023/01/08 11:28:16;;;;;;;6.50;1.40;;;;;;;;;;5110489;28;20236;-81
2023/01/08 11:30:45;;;;;;;6.23;1.70;;;;;;;;;;5112791;28;20277;-80
2023/01/08 11:33:15;;;;;;;5.90;1.20;;;;;;;;;;5109160;28;20309;-80
2023/01/08 11:35:45;;;;;;;6.67;1.47;;;;;;;;;;5095657;27;20201;-80
2023/01/08 11:38:13;;;;;;;9.33;1.30;;;;;;;;;;5105634;28;20606;-81
2023/01/08 11:40:42;;;;;;;5.93;1.00;;;;;;;;;;5103709;28;20221;-80
2023/01/08 11:43:18;;;;;;;7.70;1.50;;;;;;;;;;5104992;28;20469;-81
2023/01/08 11:45:52;;;;;;;6.80;1.40;;;;;;;;;;5099985;28;20719;-80
2023/01/08 11:48:23;;;;;;;6.60;1.50;;;;;;;;;;5102485;28;20230;-81
2023/01/08 11:50:55;;;;;;;5.80;1.20;;;;;;;;;;5095560;28;20220;-79
2023/01/08 11:53:27;;;;;;;8.17;1.40;;;;;;;;;;5099900;28;20212;-80
2023/01/08 11:56:00;;;;;;;8.37;1.40;;;;;;;;;;5099808;28;20285;-81
2023/01/08 11:58:36;;;;;;;6.73;1.40;;;;;;;;;;5100441;28;20233;-81
2023/01/08 12:01:33;;;;;;;6.20;1.50;;;;;;;;;;5101237;28;20241;-80
2023/01/08 12:04:11;;;;;;;8.27;1.40;;;;;;;;;;5025424;28;20303;-80
2023/01/08 12:06:40;;;;;;;6.30;1.03;;;;;;;;;;5024249;28;20295;-80
2023/01/08 12:09:13;;;;;;;7.33;1.50;;;;;;;;;;5025294;28;20290;-81
2023/01/08 12:11:45;;;;;;;6.83;1.40;;;;;;;;;;5026455;28;20199;-81
2023/01/08 12:14:26;;;;;;;8.77;1.33;;;;;;;;;;5027888;28;20368;-81
2023/01/08 12:17:00;;;;;;;9.83;1.93;;;;;;;;;;5025978;28;20231;-80
2023/01/08 12:19:35;;;;;;;10.33;1.67;;;;;;;;;;5026415;28;20236;-80
2023/01/08 12:22:10;;;;;;;5.63;1.47;;;;;;;;;;5027554;28;20667;-81
2023/01/08 12:24:46;;;;;;;8.70;1.93;;;;;;;;;;5026653;28;20406;-80
2023/01/08 12:27:18;;;;;;;6.57;1.47;;;;;;;;;;5024083;28;20852;-79
2023/01/08 12:29:54;;;;;;;9.00;1.40;;;;;;;;;;5017550;28;20229;-78
2023/01/08 12:32:24;;;;;;;6.53;1.07;;;;;;;;;;5025431;28;20282;-79
2023/01/08 12:34:57;;;;;;;6.23;1.57;;;;;;;;;;5026945;28;20613;-79
2023/01/08 12:37:27;;;;;;;6.23;1.60;;;;;;;;;;5038823;28;20243;-79
2023/01/08 12:39:59;;;;;;;6.83;1.47;;;;;;;;;;5106308;28;20257;-81
2023/01/08 12:42:30;;;;;;;7.10;1.50;;;;;;;;;;5106598;28;20211;-79
2023/01/08 12:44:59;;;;;;;5.63;1.70;;;;;;;;;;5104720;27;20225;-78
2023/01/08 12:47:29;;;;;;;4.23;1.33;;;;;;;;;;5100996;28;20254;-79
2023/01/08 12:50:00;;;;;;;7.30;1.33;;;;;;;;;;5101248;28;20208;-80
2023/01/08 12:52:35;;;;;;;6.53;1.40;;;;;;;;;;5105763;28;20201;-78
2023/01/08 12:55:07;;;;;;;6.30;1.50;;;;;;;;;;5103741;28;20186;-79
2023/01/08 12:57:39;;;;;;;6.43;1.37;;;;;;;;;;5102221;28;20690;-78
2023/01/08 13:00:10;;;;;;;7.83;1.77;;;;;;;;;;5101658;28;20237;-79
2023/01/08 13:02:45;;;;;;;5.90;1.30;;;;;;;;;;5101252;28;20198;-78
2023/01/08 13:05:13;;;;;;;8.77;1.50;;;;;;;;;;5105795;28;20268;-79
2023/01/08 13:07:44;;;;;;;6.20;1.30;;;;;;;;;;5109713;28;20186;-78
2023/01/08 13:10:20;;;;;;;4.57;1.30;;;;;;;;;;5107325;28;20622;-79
2023/01/08 13:12:51;;;;;;;9.87;1.57;;;;;;;;;;5107535;28;20185;-79
2023/01/08 13:15:22;;;;;;;5.73;1.30;;;;;;;;;;5110482;28;20262;-79
2023/01/08 13:17:50;;;;;;;8.97;1.53;;;;;;;;;;5108488;27;20281;-79
2023/01/08 13:20:22;;;;;;;8.43;1.60;;;;;;;;;;5108833;28;20234;-78
2023/01/08 13:22:53;;;;;;;8.90;1.43;;;;;;;;;;5104794;28;20201;-79
2023/01/08 13:25:31;;;;;;;7.70;1.50;;;;;;;;;;5104573;28;20228;-79
2023/01/08 13:27:59;;;;;;;5.90;1.70;;;;;;;;;;5106172;28;20277;-79
2023/01/08 13:30:38;;;;;;;8.80;1.97;;;;;;;;;;5102369;28;20273;-79
2023/01/08 13:33:20;;;;;;;9.00;1.60;;;;;;;;;;5112303;28;20240;-78
2023/01/08 13:35:47;;;;;;;7.73;1.57;;;;;;;;;;5113070;27;20229;-79
2023/01/08 13:38:16;;;;;;;8.83;1.83;;;;;;;;;;5114739;28;20214;-76
2023/01/08 13:40:55;;;;;;;8.43;1.77;;;;;;;;;;5110774;28;20204;-79
2023/01/08 13:43:24;;;;;;;6.20;1.33;;;;;;;;;;5109766;28;20208;-78
2023/01/08 13:46:05;;;;;;;5.70;1.30;;;;;;;;;;5112809;28;20713;-79
2023/01/08 13:48:34;;;;;;;8.10;1.50;;;;;;;;;;5113304;28;20221;-78
2023/01/08 13:51:01;;;;;;;10.27;1.80;;;;;;;;;;5110975;27;20756;-79
2023/01/08 13:53:29;;;;;;;6.07;1.67;;;;;;;;;;5105927;28;20221;-80
2023/01/08 13:55:57;;;;;;;11.17;1.97;;;;;;;;;;5111648;28;20258;-79
2023/01/08 13:58:26;;;;;;;8.83;1.30;;;;;;;;;;5109603;28;20225;-79
2023/01/08 14:00:54;;;;;;;8.30;1.30;;;;;;;;;;5109398;28;20217;-78
2023/01/08 14:03:27;;;;;;;7.53;1.67;;;;;;;;;;5112319;28;20208;-79
2023/01/08 14:06:05;;;;;;;7.40;1.47;;;;;;;;;;5109950;28;20241;-78
2023/01/08 14:08:32;;;;;;;10.37;2.07;;;;;;;;;;5110959;27;20331;-79
2023/01/08 14:10:59;;;;;;;9.10;1.80;;;;;;;;;;5107859;28;20202;-79
2023/01/08 14:13:28;;;;;;;8.63;1.87;;;;;;;;;;5112197;28;20194;-79
2023/01/08 14:15:55;;;;;;;11.57;2.03;;;;;;;;;;5107946;28;20225;-80
2023/01/08 14:18:23;;;;;;;7.03;2.00;;;;;;;;;;5108324;28;20225;-79
2023/01/08 14:20:52;;;;;;;10.90;1.80;;;;;;;;;;5103132;28;20296;-79
2023/01/08 14:23:21;;;;;;;7.47;1.90;;;;;;;;;;5111034;28;20241;-77
2023/01/08 14:25:49;;;;;;;9.40;1.70;;;;;;;;;;5110669;28;20242;-78
2023/01/08 14:28:17;;;;;;;8.83;2.10;;;;;;;;;;5111429;28;20194;-77
2023/01/08 14:30:48;;;;;;;9.10;1.80;;;;;;;;;;5111511;28;20186;-78
2023/01/08 14:33:16;;;;;;;5.70;1.60;;;;;;;;;;5112502;28;20194;-76
2023/01/08 14:35:44;;;;;;;9.03;1.90;;;;;;;;;;5112340;28;20232;-78
2023/01/08 14:38:14;;;;;;;9.23;1.80;;;;;;;;;;5113228;28;20630;-79
2023/01/08 14:40:43;;;;;;;11.20;2.07;;;;;;;;;;5112663;28;20187;-79
2023/01/08 14:43:12;;;;;;;6.77;1.73;;;;;;;;;;5111596;28;20258;-76
2023/01/08 14:45:40;;;;;;;7.23;1.77;;;;;;;;;;5111128;28;20245;-78
2023/01/08 14:48:13;;;;;;;10.13;1.73;;;;;;;;;;5108618;28;20684;-79
2023/01/08 14:50:42;;;;;;;11.27;1.67;;;;;;;;;;5108756;28;20242;-78